Time;durP1;ratioP1;P1;durP2;ratioP2;P2;SDS_P1;SDS_P2;PMS_P1;PMS_P2;Temp;Humidity;BMP_temperature;BMP_pressure;BME280_temperature;BME280_humidity;BME280_pressure;Samples;Min_cycle;Max_cycle;Signal;HPM_P1;HPM_P2
2023/08/28 00:00:48;;;;;;;;;;;15.10;99.90;;;;;;7614046;19;19949;-74
2023/08/28 00:03:20;;;;;;;;;;;15.10;99.90;;;;;;7619280;19;20868;-74
2023/08/28 00:05:53;;;;;;;;;;;15.10;99.90;;;;;;7619132;19;19930;-74
2023/08/28 00:08:25;;;;;;;;;;;15.10;99.90;;;;;;7619512;19;19919;-73
2023/08/28 00:10:57;;;;;;;;;;;15.20;99.90;;;;;;7613348;19;19922;-75
2023/08/28 00:13:29;;;;;;;;;;;15.20;99.90;;;;;;7617108;19;19929;-74
2023/08/28 00:16:02;;;;;;;;;;;15.30;99.90;;;;;;7620671;19;19962;-73
2023/08/28 00:18:34;;;;;;;;;;;15.20;99.90;;;;;;7625456;19;20337;-73
2023/08/28 00:21:07;;;;;;;;;;;15.30;99.90;;;;;;7619703;19;19923;-74
2023/08/28 00:23:39;;;;;;;;;;;15.20;99.90;;;;;;7622521;19;20828;-73
2023/08/28 00:26:11;;;;;;;;;;;15.20;99.90;;;;;;7629583;19;19918;-74
2023/08/28 00:28:43;;;;;;;;;;;15.10;99.90;;;;;;7628641;19;20250;-74
2023/08/28 00:31:15;;;;;;;;;;;15.10;99.90;;;;;;7624912;19;19946;-74
2023/08/28 00:33:48;;;;;;;;;;;15.20;99.90;;;;;;7622476;19;19934;-73
2023/08/28 00:36:20;;;;;;;;;;;15.10;99.90;;;;;;7622387;19;19985;-75
2023/08/28 00:38:52;;;;;;;;;;;15.30;99.90;;;;;;7618508;19;20028;-74
2023/08/28 00:41:25;;;;;;;;;;;15.20;99.90;;;;;;7613859;19;20980;-75
2023/08/28 00:43:59;;;;;;;;;;;15.10;99.90;;;;;;7613837;19;19981;-74
2023/08/28 00:46:33;;;;;;;;;;;15.00;99.90;;;;;;7613083;19;19926;-74
2023/08/28 00:49:05;;;;;;;;;;;15.00;99.90;;;;;;7610677;19;19919;-75
2023/08/28 00:51:37;;;;;;;;;;;15.00;99.90;;;;;;7615384;19;19918;-75
2023/08/28 00:54:09;;;;;;;;;;;15.00;99.90;;;;;;7609136;19;19966;-74
2023/08/28 00:56:42;;;;;;;;;;;15.10;99.90;;;;;;7609513;19;19930;-73
2023/08/28 00:59:17;;;;;;;;;;;15.10;99.90;;;;;;7608812;19;19925;-74
2023/08/28 01:01:49;;;;;;;;;;;15.10;99.90;;;;;;7606376;19;19931;-75
2023/08/28 01:04:21;;;;;;;;;;;15.10;99.90;;;;;;7609440;19;19918;-74
2023/08/28 01:06:58;;;;;;;;;;;15.10;99.90;;;;;;7606116;19;20867;-74
2023/08/28 01:09:30;;;;;;;;;;;15.10;99.90;;;;;;7612280;19;19925;-73
2023/08/28 01:12:07;;;;;;;;;;;15.20;99.90;;;;;;7600390;19;19927;-74
2023/08/28 01:15:05;;;;;;;;;;;15.20;99.90;;;;;;7613134;19;19957;-73
2023/08/28 01:17:38;;;;;;;;;;;15.20;99.90;;;;;;7612465;19;19919;-74
2023/08/28 01:20:13;;;;;;;;;;;15.20;99.90;;;;;;7609553;19;19939;-74
2023/08/28 01:22:46;;;;;;;;;;;15.20;99.90;;;;;;7604822;19;19922;-74
2023/08/28 01:25:18;;;;;;;;;;;15.30;99.90;;;;;;7611951;19;19970;-73
2023/08/28 01:27:52;;;;;;;;;;;15.20;99.90;;;;;;7609857;19;19988;-73
2023/08/28 01:30:24;;;;;;;;;;;15.10;99.90;;;;;;7616857;19;21572;-73
2023/08/28 01:32:56;;;;;;;;;;;15.20;99.90;;;;;;7614463;19;20536;-75
2023/08/28 01:35:31;;;;;;;;;;;15.10;99.90;;;;;;7614764;19;19935;-74
2023/08/28 01:38:19;;;;;;;;;;;15.10;99.90;;;;;;7611966;19;19923;-74
2023/08/28 01:41:09;;;;;;;;;;;15.20;99.90;;;;;;7612297;19;20268;-73
2023/08/28 01:43:45;;;;;;;;;;;15.10;99.90;;;;;;7616947;19;19947;-74
2023/08/28 01:46:18;;;;;;;;;;;15.20;99.90;;;;;;7614855;19;19931;-74
2023/08/28 01:48:52;;;;;;;;;;;15.10;99.90;;;;;;7612151;19;20328;-74
2023/08/28 01:51:25;;;;;;;;;;;15.10;99.90;;;;;;7613980;19;19946;-74
2023/08/28 01:53:57;;;;;;;;;;;15.10;99.90;;;;;;7615070;19;19922;-73
2023/08/28 01:56:30;;;;;;;;;;;15.00;99.90;;;;;;7612419;19;19923;-73
2023/08/28 01:59:04;;;;;;;;;;;15.00;99.90;;;;;;7611491;19;19923;-73
2023/08/28 02:01:36;;;;;;;;;;;15.00;99.90;;;;;;7612358;19;19923;-73
2023/08/28 02:04:08;;;;;;;;;;;15.00;99.90;;;;;;7611626;19;20353;-73
2023/08/28 02:06:40;;;;;;;;;;;15.10;99.90;;;;;;7612177;19;20546;-74
2023/08/28 02:09:13;;;;;;;;;;;15.10;99.90;;;;;;7614117;19;19939;-74
2023/08/28 02:11:45;;;;;;;;;;;15.10;99.90;;;;;;7612447;19;20534;-74
2023/08/28 02:14:17;;;;;;;;;;;15.10;99.90;;;;;;7609969;19;19914;-74
2023/08/28 02:16:50;;;;;;;;;;;15.10;99.90;;;;;;7610620;19;19926;-73
2023/08/28 02:19:22;;;;;;;;;;;15.00;99.90;;;;;;7613911;19;19923;-74
2023/08/28 02:21:54;;;;;;;;;;;15.00;99.90;;;;;;7610956;19;19926;-74
2023/08/28 02:24:26;;;;;;;;;;;15.00;99.90;;;;;;7611152;19;19926;-74
2023/08/28 02:27:00;;;;;;;;;;;15.00;99.90;;;;;;7610006;19;20938;-73
2023/08/28 02:29:32;;;;;;;;;;;15.00;99.90;;;;;;7611321;19;19918;-74
2023/08/28 02:32:04;;;;;;;;;;;15.00;99.90;;;;;;7613304;19;19923;-75
2023/08/28 02:34:39;;;;;;;;;;;15.10;99.90;;;;;;7610603;19;19921;-74
2023/08/28 02:37:12;;;;;;;;;;;15.00;99.90;;;;;;7606735;19;20347;-73
2023/08/28 02:39:44;;;;;;;;;;;15.00;99.90;;;;;;7613969;19;19954;-74
2023/08/28 02:42:16;;;;;;;;;;;15.00;99.90;;;;;;7612599;19;19964;-75
2023/08/28 02:44:48;;;;;;;;;;;14.90;99.90;;;;;;7614201;19;20634;-74
2023/08/28 02:47:22;;;;;;;;;;;14.90;99.90;;;;;;7610069;19;19948;-73
2023/08/28 02:49:55;;;;;;;;;;;14.90;99.90;;;;;;7613144;19;19931;-74
2023/08/28 02:52:42;;;;;;;;;;;14.90;99.90;;;;;;7611905;19;19932;-74
2023/08/28 02:55:14;;;;;;;;;;;14.90;99.90;;;;;;7612563;19;19923;-74
2023/08/28 02:57:46;;;;;;;;;;;14.80;99.90;;;;;;7613661;19;19918;-74
2023/08/28 03:00:19;;;;;;;;;;;14.80;99.90;;;;;;7610289;19;19918;-73
2023/08/28 03:02:51;;;;;;;;;;;14.80;99.90;;;;;;7611813;19;19926;-73
2023/08/28 03:05:24;;;;;;;;;;;14.80;99.90;;;;;;7611547;19;19949;-74
2023/08/28 03:07:56;;;;;;;;;;;14.80;99.90;;;;;;7610060;19;20376;-73
2023/08/28 03:10:30;;;;;;;;;;;14.80;99.90;;;;;;7610786;19;20771;-73
2023/08/28 03:13:02;;;;;;;;;;;14.80;99.90;;;;;;7597299;19;20317;-74
2023/08/28 03:15:35;;;;;;;;;;;14.80;99.90;;;;;;7614388;19;19933;-74
2023/08/28 03:18:07;;;;;;;;;;;14.70;99.90;;;;;;7605110;19;19915;-74
2023/08/28 03:20:41;;;;;;;;;;;14.70;99.90;;;;;;7610955;19;19966;-74
2023/08/28 03:23:13;;;;;;;;;;;14.70;99.90;;;;;;7609990;19;20146;-73
2023/08/28 03:25:45;;;;;;;;;;;14.70;99.90;;;;;;7605610;19;19926;-76
2023/08/28 03:28:17;;;;;;;;;;;14.70;99.90;;;;;;7604938;19;20023;-74
2023/08/28 03:30:55;;;;;;;;;;;14.60;99.90;;;;;;7607986;19;19956;-73
2023/08/28 03:33:28;;;;;;;;;;;14.70;99.90;;;;;;7612290;19;19914;-73
2023/08/28 03:36:00;;;;;;;;;;;14.60;99.90;;;;;;7609133;19;19922;-74
2023/08/28 03:38:32;;;;;;;;;;;14.60;99.90;;;;;;7608550;19;20350;-74
2023/08/28 03:41:04;;;;;;;;;;;14.60;99.90;;;;;;7608302;19;19922;-73
2023/08/28 03:43:37;;;;;;;;;;;14.60;99.90;;;;;;7604790;19;20298;-73
2023/08/28 03:46:09;;;;;;;;;;;14.60;99.90;;;;;;7608880;19;20250;-73
2023/08/28 03:48:41;;;;;;;;;;;14.60;99.90;;;;;;7607936;19;19923;-73
2023/08/28 03:51:13;;;;;;;;;;;14.50;99.90;;;;;;7607420;19;20609;-74
2023/08/28 03:53:45;;;;;;;;;;;14.50;99.90;;;;;;7611270;19;19930;-74
2023/08/28 03:56:19;;;;;;;;;;;14.50;99.90;;;;;;7606795;19;19929;-74
2023/08/28 03:58:52;;;;;;;;;;;14.50;99.90;;;;;;7611383;19;20442;-74
2023/08/28 04:01:25;;;;;;;;;;;14.50;99.90;;;;;;7607014;19;19922;-74
2023/08/28 04:03:57;;;;;;;;;;;14.50;99.90;;;;;;7605725;19;19962;-74
2023/08/28 04:06:29;;;;;;;;;;;14.50;99.90;;;;;;7608379;19;19929;-75
2023/08/28 04:09:01;;;;;;;;;;;14.50;99.90;;;;;;7607026;19;19922;-74
2023/08/28 04:11:35;;;;;;;;;;;14.50;99.90;;;;;;7606530;19;20187;-74
2023/08/28 04:14:07;;;;;;;;;;;14.50;99.90;;;;;;7607294;19;19930;-74
2023/08/28 04:16:39;;;;;;;;;;;14.50;99.90;;;;;;7610192;19;20404;-73
2023/08/28 04:19:12;;;;;;;;;;;14.50;99.90;;;;;;7607049;19;20006;-73
2023/08/28 04:21:44;;;;;;;;;;;14.50;99.90;;;;;;7612488;19;19915;-74
2023/08/28 04:24:16;;;;;;;;;;;14.50;99.90;;;;;;7601267;19;19997;-74
2023/08/28 04:26:48;;;;;;;;;;;14.40;99.90;;;;;;7605150;19;19925;-73
2023/08/28 04:29:20;;;;;;;;;;;14.40;99.90;;;;;;7606528;19;19942;-73
2023/08/28 04:31:53;;;;;;;;;;;14.50;99.90;;;;;;7608713;19;19930;-73
2023/08/28 04:34:25;;;;;;;;;;;14.40;99.90;;;;;;7604332;19;20551;-74
2023/08/28 04:36:57;;;;;;;;;;;14.30;99.90;;;;;;7607415;19;19918;-74
2023/08/28 04:39:29;;;;;;;;;;;14.20;99.90;;;;;;7614729;19;20372;-76
2023/08/28 04:42:02;;;;;;;;;;;14.30;99.90;;;;;;7603276;19;19956;-73
2023/08/28 04:44:34;;;;;;;;;;;14.20;99.90;;;;;;7609256;19;19926;-74
2023/08/28 04:47:06;;;;;;;;;;;14.20;99.90;;;;;;7603596;19;19926;-74
2023/08/28 04:49:38;;;;;;;;;;;14.20;99.90;;;;;;7609793;19;19933;-74
2023/08/28 04:52:10;;;;;;;;;;;14.10;99.90;;;;;;7608482;19;19926;-74
2023/08/28 04:54:42;;;;;;;;;;;14.10;99.90;;;;;;7610040;19;19925;-74
2023/08/28 04:57:15;;;;;;;;;;;14.00;99.90;;;;;;7602693;19;20638;-74
2023/08/28 04:59:48;;;;;;;;;;;14.00;99.90;;;;;;7608171;19;19941;-74
2023/08/28 05:02:22;;;;;;;;;;;14.00;99.90;;;;;;7606661;19;19918;-73
2023/08/28 05:04:54;;;;;;;;;;;14.00;99.90;;;;;;7606165;19;19921;-73
2023/08/28 05:07:26;;;;;;;;;;;14.00;99.90;;;;;;7609799;19;19947;-73
2023/08/28 05:10:00;;;;;;;;;;;14.00;99.90;;;;;;7607194;19;19941;-74
2023/08/28 05:12:32;;;;;;;;;;;14.00;99.90;;;;;;7601200;19;19910;-74
2023/08/28 05:15:05;;;;;;;;;;;14.00;99.90;;;;;;7606561;19;19929;-73
2023/08/28 05:17:37;;;;;;;;;;;14.00;99.90;;;;;;7607424;19;19994;-74
2023/08/28 05:20:10;;;;;;;;;;;14.00;99.90;;;;;;7604670;19;19922;-74
2023/08/28 05:22:42;;;;;;;;;;;13.90;99.90;;;;;;7607270;19;19926;-72
2023/08/28 05:25:14;;;;;;;;;;;13.90;99.90;;;;;;7608233;19;19919;-74
2023/08/28 05:27:46;;;;;;;;;;;13.90;99.90;;;;;;7606211;19;19927;-73
2023/08/28 05:30:18;;;;;;;;;;;13.90;99.90;;;;;;7607992;19;19945;-73
2023/08/28 05:32:50;;;;;;;;;;;13.90;99.90;;;;;;7609337;19;19986;-74
2023/08/28 05:35:22;;;;;;;;;;;13.90;99.90;;;;;;7604461;19;19922;-73
2023/08/28 05:37:55;;;;;;;;;;;13.90;99.90;;;;;;7602965;19;20323;-73
2023/08/28 05:40:28;;;;;;;;;;;13.90;99.90;;;;;;7608881;19;19930;-73
2023/08/28 05:43:00;;;;;;;;;;;13.90;99.90;;;;;;7605886;19;19958;-73
2023/08/28 05:45:32;;;;;;;;;;;13.90;99.90;;;;;;7602406;19;20898;-73
2023/08/28 05:48:05;;;;;;;;;;;13.90;99.90;;;;;;7606877;19;19943;-74
2023/08/28 05:50:39;;;;;;;;;;;13.90;99.90;;;;;;7603077;19;20453;-73
2023/08/28 05:53:11;;;;;;;;;;;13.90;99.90;;;;;;7604684;19;19926;-73
2023/08/28 05:55:44;;;;;;;;;;;13.90;99.90;;;;;;7605601;19;19930;-73
2023/08/28 05:58:16;;;;;;;;;;;13.90;99.90;;;;;;7601715;19;19929;-74
2023/08/28 06:00:48;;;;;;;;;;;13.90;99.90;;;;;;7607012;19;19923;-74
2023/08/28 06:03:22;;;;;;;;;;;13.90;99.90;;;;;;7601962;19;20027;-73
2023/08/28 06:05:55;;;;;;;;;;;13.90;99.90;;;;;;7608667;19;19918;-74
2023/08/28 06:08:28;;;;;;;;;;;13.90;99.90;;;;;;7605065;19;19946;-74
2023/08/28 06:11:00;;;;;;;;;;;13.80;99.90;;;;;;7609966;19;20281;-74
2023/08/28 06:13:33;;;;;;;;;;;13.80;99.90;;;;;;7608937;19;19958;-73
2023/08/28 06:16:06;;;;;;;;;;;13.80;99.90;;;;;;7616964;19;20001;-73
2023/08/28 06:18:38;;;;;;;;;;;13.80;99.90;;;;;;7613970;19;19922;-73
2023/08/28 06:21:10;;;;;;;;;;;13.80;99.90;;;;;;7614903;19;20765;-73
2023/08/28 06:23:43;;;;;;;;;;;13.80;99.90;;;;;;7613889;19;19938;-73
2023/08/28 06:26:15;;;;;;;;;;;13.80;99.90;;;;;;7613142;19;19927;-73
2023/08/28 06:28:47;;;;;;;;;;;13.80;99.90;;;;;;7615023;19;19919;-74
2023/08/28 06:31:19;;;;;;;;;;;13.90;99.90;;;;;;7614489;19;19941;-73
2023/08/28 06:33:51;;;;;;;;;;;13.90;99.90;;;;;;7612009;19;19923;-73
2023/08/28 06:36:26;;;;;;;;;;;13.80;99.90;;;;;;7605946;19;19926;-73
2023/08/28 06:38:59;;;;;;;;;;;13.80;99.90;;;;;;7617036;19;20258;-74
2023/08/28 06:41:31;;;;;;;;;;;13.80;99.90;;;;;;7612207;19;19944;-73
2023/08/28 06:44:09;;;;;;;;;;;13.80;99.90;;;;;;7611738;19;19972;-72
2023/08/28 06:46:41;;;;;;;;;;;13.90;99.90;;;;;;7614694;19;19922;-75
2023/08/28 06:49:13;;;;;;;;;;;13.90;99.90;;;;;;7614424;19;19929;-76
2023/08/28 06:51:46;;;;;;;;;;;13.90;99.90;;;;;;7616419;19;19978;-76
2023/08/28 06:54:18;;;;;;;;;;;14.00;99.90;;;;;;7615373;19;19918;-76
2023/08/28 06:56:51;;;;;;;;;;;13.90;99.90;;;;;;7612147;19;20455;-76
2023/08/28 06:59:23;;;;;;;;;;;13.90;99.90;;;;;;7617050;19;19946;-75
2023/08/28 07:01:57;;;;;;;;;;;13.90;99.90;;;;;;7610544;19;19997;-76
2023/08/28 07:04:29;;;;;;;;;;;13.90;99.90;;;;;;7610115;19;19952;-75
2023/08/28 07:07:01;;;;;;;;;;;13.90;99.90;;;;;;7612147;19;19952;-76
2023/08/28 07:09:33;;;;;;;;;;;13.80;99.90;;;;;;7615076;19;20395;-75
2023/08/28 07:12:05;;;;;;;;;;;13.80;99.90;;;;;;7610666;19;20368;-75
2023/08/28 07:14:37;;;;;;;;;;;13.80;99.90;;;;;;7614588;19;19946;-76
2023/08/28 07:17:09;;;;;;;;;;;13.80;99.90;;;;;;7611766;19;19922;-75
2023/08/28 07:19:42;;;;;;;;;;;13.80;99.90;;;;;;7615942;19;19942;-75
2023/08/28 07:22:15;;;;;;;;;;;13.80;99.90;;;;;;7610589;19;19918;-77
2023/08/28 07:24:47;;;;;;;;;;;13.70;99.90;;;;;;7607542;19;19927;-76
2023/08/28 07:27:19;;;;;;;;;;;13.50;99.90;;;;;;7610052;19;19907;-75
2023/08/28 07:29:51;;;;;;;;;;;13.60;99.90;;;;;;7612178;19;20342;-75
2023/08/28 07:32:23;;;;;;;;;;;13.60;99.90;;;;;;7614292;19;19926;-76
2023/08/28 07:34:55;;;;;;;;;;;13.60;99.90;;;;;;7609800;19;19926;-75
2023/08/28 07:37:28;;;;;;;;;;;13.60;99.90;;;;;;7610172;19;19929;-75
2023/08/28 07:40:00;;;;;;;;;;;13.60;99.90;;;;;;7610815;19;19939;-75
2023/08/28 07:42:33;;;;;;;;;;;13.60;99.90;;;;;;7608925;19;20931;-75
2023/08/28 07:45:05;;;;;;;;;;;13.70;99.90;;;;;;7608316;19;19933;-74
2023/08/28 07:47:38;;;;;;;;;;;13.70;99.90;;;;;;7612283;19;20007;-74
2023/08/28 07:50:10;;;;;;;;;;;13.70;99.90;;;;;;7612032;19;19933;-75
2023/08/28 07:52:43;;;;;;;;;;;13.70;99.90;;;;;;7614347;19;19955;-74
2023/08/28 07:55:16;;;;;;;;;;;13.60;99.90;;;;;;7609433;19;20882;-74
2023/08/28 07:57:48;;;;;;;;;;;13.70;99.90;;;;;;7613726;19;19926;-75
2023/08/28 08:00:21;;;;;;;;;;;13.70;99.90;;;;;;7607763;19;19996;-75
2023/08/28 08:02:55;;;;;;;;;;;13.70;99.90;;;;;;7616502;19;19922;-75
2023/08/28 08:05:27;;;;;;;;;;;13.80;99.90;;;;;;7610145;19;19922;-75
2023/08/28 08:07:59;;;;;;;;;;;13.80;99.90;;;;;;7613510;19;19922;-74
2023/08/28 08:10:32;;;;;;;;;;;13.90;99.90;;;;;;7614398;19;19918;-74
2023/08/28 08:13:04;;;;;;;;;;;13.80;99.90;;;;;;7610752;19;19930;-74
2023/08/28 08:15:37;;;;;;;;;;;13.90;99.90;;;;;;7613598;19;20846;-75
2023/08/28 08:18:09;;;;;;;;;;;13.90;99.90;;;;;;7609167;19;19926;-74
2023/08/28 08:20:41;;;;;;;;;;;13.90;99.90;;;;;;7611294;19;19923;-75
2023/08/28 08:23:13;;;;;;;;;;;14.00;99.90;;;;;;7616136;19;19927;-75
2023/08/28 08:25:46;;;;;;;;;;;13.90;99.90;;;;;;7612704;19;20965;-75
2023/08/28 08:28:19;;;;;;;;;;;14.00;99.90;;;;;;7606179;19;19915;-75
2023/08/28 08:30:51;;;;;;;;;;;14.00;99.90;;;;;;7614632;19;19926;-75
2023/08/28 08:33:23;;;;;;;;;;;14.10;99.90;;;;;;7609971;19;19927;-75
2023/08/28 08:35:55;;;;;;;;;;;14.00;99.90;;;;;;7614243;19;20420;-75
2023/08/28 08:38:27;;;;;;;;;;;14.00;99.90;;;;;;7604969;19;19926;-74
2023/08/28 08:41:00;;;;;;;;;;;14.10;99.90;;;;;;7613049;19;19956;-74
2023/08/28 08:43:32;;;;;;;;;;;14.10;99.90;;;;;;7607254;19;19923;-75
2023/08/28 08:46:05;;;;;;;;;;;14.00;99.90;;;;;;7615152;19;19926;-75
2023/08/28 08:48:40;;;;;;;;;;;14.10;99.90;;;;;;7609619;19;20424;-75
2023/08/28 08:51:13;;;;;;;;;;;14.00;99.90;;;;;;7616221;19;19950;-75
2023/08/28 08:53:52;;;;;;;;;;;14.00;99.90;;;;;;7612311;19;22428;-75
2023/08/28 08:56:27;;;;;;;;;;;14.10;99.90;;;;;;7608847;19;19945;-75
2023/08/28 08:58:59;;;;;;;;;;;14.10;99.90;;;;;;7616931;19;19922;-75
2023/08/28 09:01:32;;;;;;;;;;;14.10;99.90;;;;;;7609189;19;20384;-74
2023/08/28 09:04:06;;;;;;;;;;;14.10;99.90;;;;;;7612444;19;19926;-74
2023/08/28 09:06:39;;;;;;;;;;;14.20;99.90;;;;;;7605973;19;20421;-75
2023/08/28 09:09:11;;;;;;;;;;;14.20;99.90;;;;;;7610424;19;19923;-74
2023/08/28 09:11:45;;;;;;;;;;;14.10;99.90;;;;;;7606810;19;19923;-75
2023/08/28 09:14:17;;;;;;;;;;;14.10;99.90;;;;;;7607953;19;20022;-74
2023/08/28 09:16:49;;;;;;;;;;;14.10;99.90;;;;;;7607783;19;19926;-75
2023/08/28 09:19:21;;;;;;;;;;;14.10;99.90;;;;;;7611597;19;20401;-75
2023/08/28 09:21:53;;;;;;;;;;;14.10;99.90;;;;;;7606994;19;19919;-75
2023/08/28 09:24:26;;;;;;;;;;;14.10;99.90;;;;;;7602875;19;20357;-73
2023/08/28 09:27:00;;;;;;;;;;;14.20;99.90;;;;;;7609093;19;19923;-74
2023/08/28 09:29:37;;;;;;;;;;;14.20;99.90;;;;;;7608924;19;19933;-74
2023/08/28 09:32:09;;;;;;;;;;;14.20;99.90;;;;;;7608994;19;19918;-75
2023/08/28 09:34:41;;;;;;;;;;;14.40;99.90;;;;;;7608775;19;21660;-75
2023/08/28 09:37:13;;;;;;;;;;;14.40;99.90;;;;;;7607858;19;19942;-74
2023/08/28 09:39:56;;;;;;;;;;;14.50;99.90;;;;;;7607278;19;19949;-75
2023/08/28 09:42:28;;;;;;;;;;;14.40;99.90;;;;;;7605846;19;19921;-75
2023/08/28 09:45:04;;;;;;;;;;;14.50;99.90;;;;;;7610416;19;19990;-74
2023/08/28 09:47:36;;;;;;;;;;;14.70;99.90;;;;;;7610146;19;19918;-75
2023/08/28 09:50:09;;;;;;;;;;;14.80;99.90;;;;;;7619941;19;19999;-74
2023/08/28 09:52:41;;;;;;;;;;;14.70;99.90;;;;;;7608605;19;19958;-74
2023/08/28 09:55:13;;;;;;;;;;;14.80;99.90;;;;;;7611760;19;19925;-74
2023/08/28 09:57:45;;;;;;;;;;;14.90;99.90;;;;;;7610324;19;20298;-75
2023/08/28 10:00:17;;;;;;;;;;;14.90;99.90;;;;;;7618852;19;19933;-75
2023/08/28 10:02:50;;;;;;;;;;;14.90;99.90;;;;;;7612544;19;19926;-74
2023/08/28 10:05:23;;;;;;;;;;;15.00;99.90;;;;;;7617660;19;19910;-75
2023/08/28 10:08:01;;;;;;;;;;;15.20;99.90;;;;;;7616392;19;19938;-74
2023/08/28 10:10:34;;;;;;;;;;;15.30;99.90;;;;;;7619013;19;19960;-75
2023/08/28 10:13:09;;;;;;;;;;;15.30;99.90;;;;;;7621185;19;19918;-74
2023/08/28 10:15:48;;;;;;;;;;;15.20;99.90;;;;;;7619425;19;19923;-74
2023/08/28 10:18:34;;;;;;;;;;;15.20;99.90;;;;;;7619311;19;19918;-74
2023/08/28 10:21:07;;;;;;;;;;;15.30;99.90;;;;;;7617136;19;19940;-75
2023/08/28 10:23:40;;;;;;;;;;;15.30;99.90;;;;;;7617846;19;20394;-75
2023/08/28 10:26:13;;;;;;;;;;;15.30;99.90;;;;;;7610028;19;20266;-74
2023/08/28 10:28:46;;;;;;;;;;;15.40;99.90;;;;;;7619789;19;19994;-76
2023/08/28 10:31:19;;;;;;;;;;;15.40;99.90;;;;;;7621428;19;19936;-74
2023/08/28 10:33:52;;;;;;;;;;;15.40;99.90;;;;;;7618002;19;19946;-74
2023/08/28 10:36:26;;;;;;;;;;;15.40;99.90;;;;;;7615692;19;19929;-74
2023/08/28 10:39:01;;;;;;;;;;;15.60;99.90;;;;;;7616376;19;19926;-74
2023/08/28 10:41:33;;;;;;;;;;;15.80;99.90;;;;;;7614977;19;20443;-74
2023/08/28 10:44:05;;;;;;;;;;;15.80;99.90;;;;;;7616440;19;19960;-74
2023/08/28 10:46:38;;;;;;;;;;;15.70;99.90;;;;;;7617894;19;19943;-74
2023/08/28 10:49:10;;;;;;;;;;;15.60;99.90;;;;;;7614139;19;19950;-74
2023/08/28 10:51:44;;;;;;;;;;;15.60;99.90;;;;;;7614297;19;19929;-74
2023/08/28 10:54:17;;;;;;;;;;;15.60;99.90;;;;;;7616133;19;19928;-73
2023/08/28 10:56:53;;;;;;;;;;;15.60;99.90;;;;;;7615230;19;19918;-73
2023/08/28 10:59:26;;;;;;;;;;;15.40;99.90;;;;;;7620568;19;19918;-75
2023/08/28 11:02:00;;;;;;;;;;;15.40;99.90;;;;;;7614575;19;19929;-74
2023/08/28 11:04:35;;;;;;;;;;;15.40;99.90;;;;;;7616356;19;19911;-74
2023/08/28 11:07:27;;;;;;;;;;;15.30;99.90;;;;;;7617302;19;20627;-75
2023/08/28 11:10:16;;;;;;;;;;;15.30;99.90;;;;;;7616596;19;19927;-75
2023/08/28 11:12:56;;;;;;;;;;;15.30;99.90;;;;;;7618740;19;19919;-74
2023/08/28 11:15:32;;;;;;;;;;;15.30;99.90;;;;;;7618066;19;19929;-73
2023/08/28 11:18:23;;;;;;;;;;;15.30;99.90;;;;;;7616767;19;21177;-74
2023/08/28 11:21:01;;;;;;;;;;;15.40;99.90;;;;;;7615042;19;20337;-74
2023/08/28 11:23:37;;;;;;;;;;;15.40;99.90;;;;;;7618500;19;19918;-74
2023/08/28 11:26:16;;;;;;;;;;;15.40;99.90;;;;;;7615330;19;19931;-73
2023/08/28 11:28:48;;;;;;;;;;;15.40;99.90;;;;;;7610777;19;19919;-73
2023/08/28 11:31:28;;;;;;;;;;;15.40;99.90;;;;;;7610634;19;19922;-74
2023/08/28 11:34:01;;;;;;;;;;;15.40;99.90;;;;;;7610816;19;19930;-74
2023/08/28 11:36:38;;;;;;;;;;;15.60;99.90;;;;;;7613690;19;19974;-73
2023/08/28 11:39:23;;;;;;;;;;;15.60;99.90;;;;;;7617460;19;20520;-75
2023/08/28 11:41:55;;;;;;;;;;;15.70;99.90;;;;;;7616454;19;19944;-73
2023/08/28 11:44:31;;;;;;;;;;;15.70;99.90;;;;;;7617453;19;19955;-73
2023/08/28 11:47:03;;;;;;;;;;;15.70;99.90;;;;;;7612644;19;19923;-73
2023/08/28 11:49:36;;;;;;;;;;;15.70;99.90;;;;;;7617917;19;19919;-74
2023/08/28 11:52:14;;;;;;;;;;;15.70;99.90;;;;;;7618875;19;19985;-73
2023/08/28 11:54:47;;;;;;;;;;;15.70;99.90;;;;;;7612854;19;19942;-73
2023/08/28 11:57:21;;;;;;;;;;;15.60;99.90;;;;;;7613664;19;20342;-75
2023/08/28 11:59:54;;;;;;;;;;;15.50;99.90;;;;;;7614170;19;20345;-75
2023/08/28 12:02:28;;;;;;;;;;;15.50;99.90;;;;;;7616478;19;19919;-75
2023/08/28 12:05:01;;;;;;;;;;;15.50;99.90;;;;;;7612401;19;19942;-74
2023/08/28 12:07:33;;;;;;;;;;;15.50;99.90;;;;;;7609401;19;19918;-74
2023/08/28 12:10:05;;;;;;;;;;;15.50;99.90;;;;;;7617789;19;19914;-73
2023/08/28 12:12:38;;;;;;;;;;;15.50;99.90;;;;;;7612932;19;19933;-73
2023/08/28 12:15:10;;;;;;;;;;;15.50;99.90;;;;;;7610836;19;19911;-73
2023/08/28 12:17:45;;;;;;;;;;;15.50;99.90;;;;;;7610736;19;19926;-74
2023/08/28 12:20:19;;;;;;;;;;;15.50;99.90;;;;;;7612357;19;19922;-74
2023/08/28 12:22:54;;;;;;;;;;;15.50;99.90;;;;;;7611815;19;19911;-73
2023/08/28 12:25:30;;;;;;;;;;;15.40;99.90;;;;;;7614182;19;20399;-74
2023/08/28 12:28:10;;;;;;;;;;;15.40;99.90;;;;;;7608969;19;19989;-74
2023/08/28 12:30:42;;;;;;;;;;;15.30;99.90;;;;;;7612368;19;19941;-74
2023/08/28 12:33:15;;;;;;;;;;;15.30;99.90;;;;;;7613291;19;19942;-73
2023/08/28 12:35:47;;;;;;;;;;;15.10;99.90;;;;;;7613101;19;19922;-75
2023/08/28 12:38:19;;;;;;;;;;;15.10;99.90;;;;;;7603759;19;20302;-73
2023/08/28 12:40:51;;;;;;;;;;;15.00;99.90;;;;;;7610726;19;21142;-73
2023/08/28 12:43:24;;;;;;;;;;;15.00;99.90;;;;;;7613259;19;20391;-74
2023/08/28 12:45:57;;;;;;;;;;;15.00;99.90;;;;;;7609938;19;20324;-74
2023/08/28 12:48:29;;;;;;;;;;;15.00;99.90;;;;;;7612137;19;20337;-74
2023/08/28 12:51:01;;;;;;;;;;;14.90;99.90;;;;;;7610572;19;19923;-74
2023/08/28 12:53:33;;;;;;;;;;;14.80;99.90;;;;;;7613234;19;19918;-74
2023/08/28 12:56:06;;;;;;;;;;;14.80;99.90;;;;;;7609266;19;19930;-74
2023/08/28 12:58:38;;;;;;;;;;;14.80;99.90;;;;;;7608664;19;19935;-74
2023/08/28 13:01:10;;;;;;;;;;;14.80;99.90;;;;;;7613701;19;20412;-74
2023/08/28 13:03:42;;;;;;;;;;;14.80;99.90;;;;;;7611090;19;19919;-74
2023/08/28 13:06:15;;;;;;;;;;;14.80;99.90;;;;;;7610502;19;19926;-72
2023/08/28 13:08:47;;;;;;;;;;;14.90;99.90;;;;;;7612871;19;20759;-74
2023/08/28 13:11:19;;;;;;;;;;;14.90;99.90;;;;;;7606072;19;20380;-73
2023/08/28 13:13:51;;;;;;;;;;;14.90;99.90;;;;;;7610857;19;19986;-73
2023/08/28 13:16:24;;;;;;;;;;;14.90;99.90;;;;;;7610463;19;19923;-74
2023/08/28 13:18:57;;;;;;;;;;;15.00;99.90;;;;;;7609642;19;19918;-73
2023/08/28 13:21:30;;;;;;;;;;;15.00;99.90;;;;;;7613838;19;19952;-73
2023/08/28 13:24:03;;;;;;;;;;;15.00;99.90;;;;;;7617990;19;19911;-74
2023/08/28 13:26:35;;;;;;;;;;;15.10;99.90;;;;;;7617870;19;19918;-73
2023/08/28 13:29:07;;;;;;;;;;;15.20;99.90;;;;;;7617205;19;19960;-73
2023/08/28 13:31:39;;;;;;;;;;;15.30;99.90;;;;;;7614924;19;19949;-73
2023/08/28 13:34:12;;;;;;;;;;;15.30;99.90;;;;;;7620970;19;20495;-74
2023/08/28 13:36:44;;;;;;;;;;;15.30;99.90;;;;;;7614668;19;20267;-73
2023/08/28 13:39:17;;;;;;;;;;;15.20;99.90;;;;;;7620713;19;19941;-73
2023/08/28 13:41:49;;;;;;;;;;;15.20;99.90;;;;;;7615084;19;20833;-73
2023/08/28 13:44:21;;;;;;;;;;;15.30;99.90;;;;;;7617618;19;19922;-73
2023/08/28 13:46:54;;;;;;;;;;;15.30;99.90;;;;;;7615458;19;19918;-72
2023/08/28 13:49:28;;;;;;;;;;;15.30;99.90;;;;;;7616279;19;19947;-72
2023/08/28 13:52:00;;;;;;;;;;;15.10;99.90;;;;;;7622063;19;19918;-73
2023/08/28 13:54:32;;;;;;;;;;;15.10;99.90;;;;;;7616914;19;19935;-73
2023/08/28 13:57:04;;;;;;;;;;;15.10;99.90;;;;;;7612622;19;20245;-73
2023/08/28 13:59:37;;;;;;;;;;;15.00;99.90;;;;;;7616057;19;19923;-72
2023/08/28 14:02:09;;;;;;;;;;;15.00;99.90;;;;;;7615583;19;19998;-73
2023/08/28 14:04:41;;;;;;;;;;;14.90;99.90;;;;;;7598564;19;19926;-72
2023/08/28 14:07:13;;;;;;;;;;;14.90;99.90;;;;;;7614731;19;19930;-72
2023/08/28 14:09:45;;;;;;;;;;;14.90;99.90;;;;;;7613440;19;20414;-73
2023/08/28 14:12:18;;;;;;;;;;;14.90;99.90;;;;;;7616173;19;19922;-73
2023/08/28 14:14:50;;;;;;;;;;;14.90;99.90;;;;;;7611067;19;19958;-73
2023/08/28 14:17:24;;;;;;;;;;;14.90;99.90;;;;;;7616205;19;19933;-73
2023/08/28 14:19:57;;;;;;;;;;;14.80;99.90;;;;;;7611535;19;20164;-72
2023/08/28 14:22:29;;;;;;;;;;;14.80;99.90;;;;;;7616776;19;20552;-72
2023/08/28 14:25:02;;;;;;;;;;;14.90;99.90;;;;;;7616194;19;19918;-74
2023/08/28 14:27:35;;;;;;;;;;;14.80;99.90;;;;;;7605485;19;19922;-73
2023/08/28 14:30:24;;;;;;;;;;;14.80;99.90;;;;;;7619791;19;19956;-73
2023/08/28 14:32:56;;;;;;;;;;;14.80;99.90;;;;;;7605342;19;19922;-73
2023/08/28 14:35:28;;;;;;;;;;;14.90;99.90;;;;;;7617352;19;19918;-73
2023/08/28 14:38:02;;;;;;;;;;;14.80;99.90;;;;;;7610909;19;20457;-73
2023/08/28 14:40:36;;;;;;;;;;;14.80;99.90;;;;;;7617635;19;20819;-73
2023/08/28 14:43:18;;;;;;;;;;;14.80;99.90;;;;;;7624903;19;19927;-74
2023/08/28 14:45:52;;;;;;;;;;;14.80;99.90;;;;;;7611707;19;20340;-73
2023/08/28 14:48:25;;;;;;;;;;;14.80;99.90;;;;;;7613809;19;20401;-73
2023/08/28 14:50:57;;;;;;;;;;;14.80;99.90;;;;;;7613932;19;20386;-74